createdAt,value
2019-06-10T00:00:17.613Z,89297.10
2019-06-10T00:02:47.438Z,89372.09
2019-06-10T00:05:17.310Z,89643.92
2019-06-10T00:07:47.148Z,89643.92
2019-06-10T00:10:17.067Z,89689.28
2019-06-10T00:12:46.990Z,89684.91
2019-06-10T00:15:16.890Z,89692.81
2019-06-10T00:17:53.372Z,89766.58
2019-06-10T00:20:18.257Z,89753.38
2019-06-10T00:22:48.123Z,89742.52
2019-06-10T00:25:18.246Z,89731.49
2019-06-10T00:27:48.080Z,89790.86
2019-06-10T00:30:17.935Z,89790.86
2019-06-10T00:32:48.419Z,89776.91
2019-06-10T00:35:18.258Z,89761.60
2019-06-10T00:37:48.144Z,89744.06
2019-06-10T00:40:17.998Z,89858.95
2019-06-10T00:42:47.879Z,89972.89
2019-06-10T00:45:18.201Z,89970.92
2019-06-10T00:47:48.158Z,89987.39
2019-06-10T00:50:18.036Z,89931.64
2019-06-10T00:52:47.877Z,89880.59
2019-06-10T00:55:17.719Z,89861.69
2019-06-10T00:57:47.547Z,89855.61
2019-06-10T01:00:25.344Z,89898.75
2019-06-10T01:02:51.629Z,90003.11
2019-06-10T01:05:20.807Z,90072.66
2019-06-10T01:07:51.062Z,90048.92
2019-06-10T01:10:21.174Z,89981.03
2019-06-10T01:12:51.393Z,89934.86
2019-06-10T01:15:21.842Z,90049.14
2019-06-10T01:17:51.887Z,90067.33
2019-06-10T01:20:21.728Z,90080.59
2019-06-10T01:22:51.719Z,90022.28
2019-06-10T01:25:21.980Z,89927.84
2019-06-10T01:27:51.797Z,89868.27
2019-06-10T01:30:26.455Z,89783.98
2019-06-10T01:32:53.195Z,89783.98
2019-06-10T01:35:23.041Z,89803.23
2019-06-10T01:37:52.906Z,89885.31
2019-06-10T01:40:22.740Z,89983.99
2019-06-10T01:42:52.606Z,90098.92
2019-06-10T01:45:22.436Z,90159.80
2019-06-10T01:47:52.317Z,90259.49
2019-06-10T01:50:22.169Z,90264.05
2019-06-10T01:52:51.990Z,90270.00
2019-06-10T01:55:22.088Z,90222.08
2019-06-10T01:57:52.027Z,90102.99
2019-06-10T02:00:26.095Z,90076.52
2019-06-10T02:02:55.194Z,89967.23
2019-06-10T02:05:25.056Z,90153.48
2019-06-10T02:07:54.915Z,90121.38
2019-06-10T02:10:24.728Z,90096.62
2019-06-10T02:12:54.624Z,90084.64
2019-06-10T02:15:24.411Z,90093.71
2019-06-10T02:17:54.241Z,90045.33
2019-06-10T02:20:24.126Z,90063.78
2019-06-10T02:22:53.965Z,90043.27
2019-06-10T02:25:23.759Z,90029.25
2019-06-10T02:27:53.668Z,90229.46
2019-06-10T02:30:38.981Z,90371.69
2019-06-10T02:32:55.059Z,90536.20
2019-06-10T02:35:37.615Z,90609.48
2019-06-10T02:37:56.409Z,90631.91
2019-06-10T02:40:32.107Z,90629.66
2019-06-10T02:42:59.017Z,90712.00
2019-06-10T02:45:36.298Z,90951.53
2019-06-10T02:48:03.910Z,90888.56
2019-06-10T02:50:38.433Z,90814.25
2019-06-10T02:53:08.375Z,90885.19
2019-06-10T02:55:38.236Z,90957.53
2019-06-10T02:58:08.087Z,91008.09
2019-06-10T03:00:47.234Z,91036.22
2019-06-10T03:03:13.478Z,90981.17
2019-06-10T03:05:46.546Z,90908.94
2019-06-10T03:08:13.284Z,90817.20
2019-06-10T03:10:44.302Z,90744.12
2019-06-10T03:13:15.588Z,90776.56
2019-06-10T03:15:52.203Z,90796.46
2019-06-10T03:18:22.498Z,90748.84
2019-06-10T03:20:53.275Z,90749.70
2019-06-10T03:23:27.772Z,90845.69
2019-06-10T03:26:04.420Z,90858.61
2019-06-10T03:28:34.511Z,90957.16
2019-06-10T03:31:06.113Z,90814.25
2019-06-10T03:33:41.638Z,90670.28
2019-06-10T03:36:07.436Z,90711.16
2019-06-10T03:38:37.304Z,90562.30
2019-06-10T03:41:07.155Z,90469.92
2019-06-10T03:43:36.975Z,90260.93
2019-06-10T03:46:06.797Z,90174.21
2019-06-10T03:48:36.727Z,90121.27
2019-06-10T03:51:06.552Z,90078.56
2019-06-10T03:53:36.412Z,89825.13
2019-06-10T03:56:06.319Z,89815.38
2019-06-10T03:58:36.166Z,89680.03
2019-06-10T04:01:06.002Z,89491.05
2019-06-10T04:03:35.880Z,89491.05
2019-06-10T04:06:05.708Z,89336.34
2019-06-10T04:08:35.897Z,88859.31
2019-06-10T04:11:05.736Z,88474.81
2019-06-10T04:13:35.593Z,88766.63
2019-06-10T04:16:05.647Z,88748.38
2019-06-10T04:18:35.492Z,88443.38
2019-06-10T04:21:05.311Z,88311.61
2019-06-10T04:23:35.215Z,88311.61
2019-06-10T04:26:05.052Z,88009.06
2019-06-10T04:28:34.887Z,88337.17
2019-06-10T04:31:04.759Z,88197.98
2019-06-10T04:33:34.594Z,88264.48
2019-06-10T04:36:04.458Z,87985.30
2019-06-10T04:38:34.408Z,87619.83
2019-06-10T04:41:04.338Z,87619.83
2019-06-10T04:43:34.215Z,87184.38
2019-06-10T04:46:04.056Z,86822.61
2019-06-10T04:48:33.879Z,86452.88
2019-06-10T04:51:03.827Z,86220.69
2019-06-10T04:53:33.712Z,86183.91
2019-06-10T04:56:03.556Z,85754.84
2019-06-10T04:58:33.718Z,85472.91
2019-06-10T05:01:03.733Z,85379.41
2019-06-10T05:03:33.608Z,85146.67
2019-06-10T05:06:03.622Z,84752.16
2019-06-10T05:08:34.001Z,84890.16
2019-06-10T05:11:04.006Z,84725.08
2019-06-10T05:13:33.969Z,84126.95
2019-06-10T05:16:04.070Z,83958.62
2019-06-10T05:18:33.933Z,83843.50
2019-06-10T05:21:03.760Z,83665.38
2019-06-10T05:23:33.609Z,83742.00
2019-06-10T05:26:03.450Z,83619.84
2019-06-10T05:28:34.351Z,83742.95
2019-06-10T05:31:04.268Z,83197.88
2019-06-10T05:33:34.442Z,82731.44
2019-06-10T05:36:04.310Z,82365.65
2019-06-10T05:38:35.314Z,82172.48
2019-06-10T05:41:05.486Z,81627.04
2019-06-10T05:43:35.329Z,81370.68
2019-06-10T05:46:05.229Z,81073.42
2019-06-10T05:48:35.249Z,80615.89
2019-06-10T05:51:06.794Z,80270.81
2019-06-10T05:53:36.625Z,79904.33
2019-06-10T05:56:06.450Z,79655.25
2019-06-10T05:58:36.350Z,79393.80
2019-06-10T06:01:06.148Z,79291.26
2019-06-10T06:03:37.063Z,79050.42
2019-06-10T06:06:07.072Z,78559.68
2019-06-10T06:08:37.572Z,77590.48
2019-06-10T06:11:07.501Z,77359.94
2019-06-10T06:13:38.033Z,76534.51
2019-06-10T06:16:08.371Z,75575.86
2019-06-10T06:18:38.405Z,72085.80
2019-06-10T06:21:22.321Z,66686.80
2019-06-10T06:23:43.451Z,60803.46
2019-06-10T06:26:16.546Z,55661.30
2019-06-10T06:28:44.333Z,55350.51
2019-06-10T06:31:14.387Z,56882.41
2019-06-10T06:33:44.262Z,58793.53
2019-06-10T06:36:14.129Z,59265.66
2019-06-10T06:38:44.017Z,61883.52
2019-06-10T06:41:13.958Z,64941.45
2019-06-10T06:43:45.365Z,65879.38
2019-06-10T06:46:15.782Z,64810.22
2019-06-10T06:48:45.645Z,63662.34
2019-06-10T06:51:15.618Z,61931.12
2019-06-10T06:53:51.930Z,61628.95
2019-06-10T06:56:17.347Z,60884.83
2019-06-10T06:58:47.205Z,59765.60
2019-06-10T07:01:17.067Z,59478.36
2019-06-10T07:03:47.010Z,59363.13
2019-06-10T07:06:16.970Z,58004.31
2019-06-10T07:09:00.243Z,57371.15
2019-06-10T07:11:19.126Z,56383.82
2019-06-10T07:13:49.004Z,56992.30
2019-06-10T07:16:18.837Z,58501.67
2019-06-10T07:18:50.123Z,58673.09
2019-06-10T07:21:22.614Z,58144.14
2019-06-10T07:23:52.916Z,59229.78
2019-06-10T07:26:22.899Z,59350.31
2019-06-10T07:28:53.730Z,58939.25
2019-06-10T07:31:27.850Z,58587.83
2019-06-10T07:33:55.383Z,57428.72
2019-06-10T07:36:25.273Z,56083.70
2019-06-10T07:38:55.124Z,55987.85
2019-06-10T07:41:25.017Z,56371.36
2019-06-10T07:43:54.823Z,56410.60
2019-06-10T07:46:24.664Z,56030.13
2019-06-10T07:48:56.637Z,57254.87
2019-06-10T07:51:26.094Z,56355.08
2019-06-10T07:53:56.104Z,57222.54
2019-06-10T07:56:28.975Z,57163.80
2019-06-10T07:58:57.549Z,56866.13
2019-06-10T08:01:27.479Z,56612.30
2019-06-10T08:03:57.357Z,57007.48
2019-06-10T08:06:27.224Z,56087.66
2019-06-10T08:08:57.077Z,56275.43
2019-06-10T08:11:26.938Z,56714.84
2019-06-10T08:13:56.819Z,56797.77
2019-06-10T08:16:26.699Z,56339.12
2019-06-10T08:19:22.116Z,56933.20
2019-06-10T08:21:28.160Z,56564.46
2019-06-10T08:23:58.002Z,56415.68
2019-06-10T08:26:27.897Z,57319.55
2019-06-10T08:28:57.779Z,56824.20
2019-06-10T08:31:27.758Z,56285.60
2019-06-10T08:33:57.675Z,58712.70
2019-06-10T08:36:27.518Z,58794.07
2019-06-10T08:38:57.496Z,58278.08
2019-06-10T08:41:27.357Z,60882.98
2019-06-10T08:43:57.197Z,59717.05
2019-06-10T08:46:27.112Z,58610.68
2019-06-10T08:48:56.980Z,58035.24
2019-06-10T08:51:26.843Z,57518.99
2019-06-10T08:53:56.908Z,57026.80
2019-06-10T08:56:26.775Z,57365.30
2019-06-10T08:58:56.603Z,57411.28
2019-06-10T09:01:26.505Z,56704.25
2019-06-10T09:03:56.337Z,57563.97
2019-06-10T09:06:26.339Z,57495.89
2019-06-10T09:08:56.151Z,57039.04
2019-06-10T09:11:26.538Z,56697.17
2019-06-10T09:13:56.466Z,58039.73
2019-06-10T09:16:26.379Z,59195.64
2019-06-10T09:18:56.232Z,58423.18
2019-06-10T09:21:26.109Z,57974.13
2019-06-10T09:24:00.438Z,57586.27
2019-06-10T09:26:27.511Z,57623.45
2019-06-10T09:28:57.437Z,57234.47
2019-06-10T09:31:27.287Z,57029.33
2019-06-10T09:33:57.306Z,57196.61
2019-06-10T09:36:27.096Z,58016.85
2019-06-10T09:38:56.955Z,58572.82
2019-06-10T09:41:39.959Z,58222.89
2019-06-10T09:43:58.562Z,57639.18
2019-06-10T09:46:32.523Z,58300.05
2019-06-10T09:49:02.288Z,58648.23
2019-06-10T09:51:32.550Z,58541.35
2019-06-10T09:54:06.625Z,58686.31
2019-06-10T09:56:34.233Z,58846.44
2019-06-10T09:59:04.110Z,59172.60
2019-06-10T10:01:33.934Z,59159.03
2019-06-10T10:04:04.789Z,58691.51
2019-06-10T10:06:34.927Z,58300.33
2019-06-10T10:09:06.690Z,58079.28
2019-06-10T10:11:36.531Z,58224.38
2019-06-10T10:14:10.098Z,58474.28
2019-06-10T10:16:38.107Z,58323.49
2019-06-10T10:19:07.952Z,58228.84
2019-06-10T10:21:41.209Z,58405.63
2019-06-10T10:24:12.285Z,59175.52
2019-06-10T10:26:43.258Z,58812.66
2019-06-10T10:29:13.032Z,58892.95
2019-06-10T10:31:47.495Z,58484.41
2019-06-10T10:34:15.829Z,58375.97
2019-06-10T10:36:48.267Z,58514.62
2019-06-10T10:39:21.072Z,58955.36
2019-06-10T10:41:50.209Z,59345.09
2019-06-10T10:44:20.336Z,59087.72
2019-06-10T10:46:52.701Z,58776.47
2019-06-10T10:49:22.367Z,59091.65
2019-06-10T10:51:53.573Z,58900.49
2019-06-10T10:54:32.778Z,59369.66
2019-06-10T10:56:58.850Z,59584.40
2019-06-10T10:59:26.781Z,59812.93
2019-06-10T11:01:56.633Z,59583.38
2019-06-10T11:04:26.482Z,59885.41
2019-06-10T11:06:57.958Z,59387.85
2019-06-10T11:09:27.964Z,58834.60
2019-06-10T11:11:58.502Z,59297.95
2019-06-10T11:14:29.195Z,59376.18
2019-06-10T11:16:59.181Z,59299.20
2019-06-10T11:19:29.122Z,59413.84
2019-06-10T11:21:58.983Z,59089.52
2019-06-10T11:24:37.798Z,59484.13
2019-06-10T11:27:02.989Z,59731.80
2019-06-10T11:29:32.918Z,60346.78
2019-06-10T11:32:03.212Z,59889.39
2019-06-10T11:34:33.417Z,60696.75
2019-06-10T11:37:03.366Z,60542.75
2019-06-10T11:39:37.851Z,60092.24
2019-06-10T11:42:04.938Z,59542.57
2019-06-10T11:44:34.808Z,59000.49
2019-06-10T11:47:04.683Z,58721.03
2019-06-10T11:49:34.561Z,58400.07
2019-06-10T11:52:04.402Z,58340.18
2019-06-10T11:54:50.937Z,58490.96
2019-06-10T11:57:05.865Z,58441.04
2019-06-10T11:59:35.735Z,58066.98
2019-06-10T12:02:06.291Z,58040.68
2019-06-10T12:04:36.339Z,59005.33
2019-06-10T12:07:06.184Z,59418.55
2019-06-10T12:09:36.131Z,59639.01
2019-06-10T12:12:05.982Z,59585.48
2019-06-10T12:14:35.906Z,59674.42
2019-06-10T12:17:21.835Z,59445.45
2019-06-10T12:19:37.327Z,59397.68
2019-06-10T12:22:07.850Z,59117.77
2019-06-10T12:24:38.002Z,58902.91
2019-06-10T12:27:07.858Z,59104.42
2019-06-10T12:29:37.803Z,59259.04
2019-06-10T12:32:07.881Z,58881.41
2019-06-10T12:34:37.768Z,59048.90
2019-06-10T12:37:11.260Z,59097.27
2019-06-10T12:39:39.282Z,58910.17
2019-06-10T12:42:13.617Z,58644.16
2019-06-10T12:44:42.848Z,59225.20
2019-06-10T12:47:12.300Z,58705.51
2019-06-10T12:49:42.779Z,58657.09
2019-06-10T12:52:13.232Z,58444.85
2019-06-10T12:54:43.580Z,58570.82
2019-06-10T12:57:16.273Z,58423.36
2019-06-10T12:59:45.099Z,58483.39
2019-06-10T13:02:22.714Z,58879.33
2019-06-10T13:04:46.890Z,58546.69
2019-06-10T13:07:18.801Z,58757.56
2019-06-10T13:09:48.870Z,58886.55
2019-06-10T13:12:18.778Z,58605.62
2019-06-10T13:14:48.649Z,58808.78
2019-06-10T13:17:18.533Z,58500.49
2019-06-10T13:19:48.410Z,58734.00
2019-06-10T13:22:18.262Z,59236.51
2019-06-10T13:24:48.170Z,59707.77
2019-06-10T13:27:18.053Z,60526.63
2019-06-10T13:29:47.954Z,60284.58
2019-06-10T13:32:17.894Z,60931.43
2019-06-10T13:34:47.817Z,61139.26
2019-06-10T13:37:17.711Z,61222.68
2019-06-10T13:39:47.572Z,61126.90
2019-06-10T13:42:17.461Z,61009.75
2019-06-10T13:44:47.335Z,60491.66
2019-06-10T13:47:17.274Z,60823.43
2019-06-10T13:49:47.330Z,60402.02
2019-06-10T13:52:17.275Z,60353.27
2019-06-10T13:54:47.164Z,60567.09
2019-06-10T13:57:17.058Z,60596.75
2019-06-10T13:59:46.950Z,60723.10
2019-06-10T14:02:16.812Z,60503.45
2019-06-10T14:04:46.725Z,60143.49
2019-06-10T14:07:17.546Z,59586.55
2019-06-10T14:09:47.838Z,59755.99
2019-06-10T14:12:17.979Z,59161.78
2019-06-10T14:14:48.284Z,59514.87
2019-06-10T14:17:19.525Z,59754.95
2019-06-10T14:19:49.647Z,59540.39
2019-06-10T14:22:22.653Z,59915.71
2019-06-10T14:24:53.060Z,60607.27
2019-06-10T14:27:24.584Z,60563.83
2019-06-10T14:29:54.352Z,61245.53
2019-06-10T14:32:24.258Z,61757.26
2019-06-10T14:34:54.126Z,61857.54
2019-06-10T14:37:35.733Z,62091.75
2019-06-10T14:39:55.592Z,62029.67
2019-06-10T14:42:25.485Z,61470.55
2019-06-10T14:44:55.393Z,61895.34
2019-06-10T14:47:25.266Z,62123.91
2019-06-10T14:49:55.104Z,62068.55
2019-06-10T14:52:25.028Z,61668.57
2019-06-10T14:54:57.479Z,61581.69
2019-06-10T14:57:26.493Z,61863.34
2019-06-10T14:59:56.401Z,61967.63
2019-06-10T15:02:26.317Z,62063.39
2019-06-10T15:04:56.213Z,62344.92
2019-06-10T15:07:26.106Z,62319.69
2019-06-10T15:09:55.978Z,62521.94
2019-06-10T15:12:25.876Z,62518.83
2019-06-10T15:14:55.741Z,62458.50
2019-06-10T15:17:25.647Z,62055.13
2019-06-10T15:19:55.538Z,62124.60
2019-06-10T15:22:25.373Z,62285.38
2019-06-10T15:24:55.231Z,62364.57
2019-06-10T15:27:30.666Z,62617.10
2019-06-10T15:29:56.663Z,62717.97
2019-06-10T15:32:34.194Z,62860.78
2019-06-10T15:34:58.496Z,62873.65
2019-06-10T15:37:29.089Z,62308.92
2019-06-10T15:39:59.188Z,62634.82
2019-06-10T15:42:29.055Z,62729.41
2019-06-10T15:44:58.902Z,63045.51
2019-06-10T15:47:28.765Z,62971.32
2019-06-10T15:49:58.651Z,62240.95
2019-06-10T15:52:28.524Z,62391.94
2019-06-10T15:54:58.386Z,62776.62
2019-06-10T15:57:39.387Z,62549.34
2019-06-10T15:59:59.778Z,62736.12
2019-06-10T16:02:29.652Z,62763.17
2019-06-10T16:04:59.537Z,62595.51
2019-06-10T16:07:29.414Z,63005.78
2019-06-10T16:09:59.259Z,63378.76
2019-06-10T16:12:29.230Z,63481.56
2019-06-10T16:14:59.073Z,63638.64
2019-06-10T16:17:30.199Z,63846.42
2019-06-10T16:20:03.640Z,64016.25
2019-06-10T16:22:32.045Z,64175.79
2019-06-10T16:25:03.424Z,64397.86
2019-06-10T16:27:47.377Z,64457.02
2019-06-10T16:30:08.026Z,64148.25
2019-06-10T16:32:37.865Z,63922.18
2019-06-10T16:35:08.475Z,64467.92
2019-06-10T16:37:38.432Z,64643.50
2019-06-10T16:40:09.463Z,64904.55
2019-06-10T16:42:39.357Z,65086.61
2019-06-10T16:45:09.334Z,65245.97
2019-06-10T16:47:39.216Z,65244.58
2019-06-10T16:50:12.038Z,65150.69
2019-06-10T16:52:43.117Z,65059.38
2019-06-10T16:55:13.195Z,65335.84
2019-06-10T16:57:58.402Z,65515.93
2019-06-10T17:00:15.112Z,65451.24
2019-06-10T17:02:45.024Z,65459.35
2019-06-10T17:05:15.024Z,65656.79
2019-06-10T17:07:44.963Z,65857.22
2019-06-10T17:10:15.006Z,65867.98
2019-06-10T17:12:46.487Z,65949.45
2019-06-10T17:15:17.017Z,66087.09
2019-06-10T17:17:46.865Z,65910.45
2019-06-10T17:20:16.848Z,66161.81
2019-06-10T17:22:46.756Z,66261.98
2019-06-10T17:25:16.779Z,66460.71
2019-06-10T17:27:46.654Z,66648.23
2019-06-10T17:30:16.661Z,66763.72
2019-06-10T17:32:46.514Z,66943.55
2019-06-10T17:35:18.101Z,67229.38
2019-06-10T17:37:47.988Z,67492.22
2019-06-10T17:40:18.910Z,67735.11
2019-06-10T17:42:48.775Z,67836.45
2019-06-10T17:45:18.745Z,68173.11
2019-06-10T17:47:52.376Z,68266.11
2019-06-10T17:50:22.344Z,68379.38
2019-06-10T17:52:53.631Z,68660.81
2019-06-10T17:55:26.522Z,68880.30
2019-06-10T17:57:55.178Z,69004.30
2019-06-10T18:00:26.539Z,69115.95
2019-06-10T18:02:56.681Z,69130.16
2019-06-10T18:05:27.258Z,68886.39
2019-06-10T18:07:57.278Z,69221.91
2019-06-10T18:10:27.687Z,69449.50
2019-06-10T18:13:12.689Z,69585.88
2019-06-10T18:15:30.245Z,69804.34
2019-06-10T18:18:03.319Z,69832.16
2019-06-10T18:20:33.982Z,70032.31
2019-06-10T18:23:04.237Z,70191.20
2019-06-10T18:25:36.774Z,70393.59
2019-06-10T18:28:05.784Z,70320.92
2019-06-10T18:30:37.655Z,70497.47
2019-06-10T18:33:07.535Z,70680.69
2019-06-10T18:35:37.814Z,70546.07
2019-06-10T18:38:07.747Z,70305.54
2019-06-10T18:40:37.582Z,70601.56
2019-06-10T18:43:07.489Z,71022.82
2019-06-10T18:45:38.644Z,71082.41
2019-06-10T18:48:09.106Z,71322.50
2019-06-10T18:50:39.654Z,71622.91
2019-06-10T18:53:09.740Z,71873.45
2019-06-10T18:55:43.005Z,71992.97
2019-06-10T18:58:11.337Z,72064.77
2019-06-10T19:00:57.029Z,72320.56
2019-06-10T19:03:16.535Z,72306.43
2019-06-10T19:05:44.357Z,71662.41
2019-06-10T19:08:14.834Z,71613.73
2019-06-10T19:10:45.777Z,72211.73
2019-06-10T19:13:15.861Z,72393.16
2019-06-10T19:15:45.789Z,72638.06
2019-06-10T19:18:15.705Z,73000.94
2019-06-10T19:20:45.576Z,73148.50
2019-06-10T19:23:16.543Z,72709.30
2019-06-10T19:25:46.488Z,72655.38
2019-06-10T19:28:16.352Z,72919.02
2019-06-10T19:30:46.281Z,73062.95
2019-06-10T19:33:16.135Z,73340.52
2019-06-10T19:35:46.019Z,73762.56
2019-06-10T19:38:15.910Z,73590.23
2019-06-10T19:40:45.829Z,73249.55
2019-06-10T19:43:15.794Z,73253.80
2019-06-10T19:45:46.881Z,73628.45
2019-06-10T19:48:16.885Z,73623.20
2019-06-10T19:50:50.136Z,73546.61
2019-06-10T19:53:18.726Z,73443.88
2019-06-10T19:55:49.071Z,73355.38
2019-06-10T19:58:19.426Z,73579.20
2019-06-10T20:00:53.560Z,73590.91
2019-06-10T20:03:22.331Z,74069.16
2019-06-10T20:05:52.889Z,74163.81
2019-06-10T20:08:23.067Z,74589.08
2019-06-10T20:10:53.369Z,75067.05
2019-06-10T20:13:23.375Z,74963.70
2019-06-10T20:15:53.373Z,75297.05
2019-06-10T20:18:23.235Z,75311.34
2019-06-10T20:20:54.037Z,75327.14
2019-06-10T20:23:24.272Z,75323.11
2019-06-10T20:25:54.150Z,75623.71
2019-06-10T20:28:24.065Z,75630.14
2019-06-10T20:30:53.948Z,75878.77
2019-06-10T20:33:37.057Z,76135.50
2019-06-10T20:36:08.004Z,76127.94
2019-06-10T20:38:38.331Z,76158.48
2019-06-10T20:41:08.376Z,76178.25
2019-06-10T20:43:39.212Z,76349.59
2019-06-10T20:46:09.266Z,76599.20
2019-06-10T20:48:39.111Z,76425.14
2019-06-10T20:51:08.940Z,76783.79
2019-06-10T20:53:40.067Z,77018.81
2019-06-10T20:56:12.463Z,77204.23
2019-06-10T20:58:43.771Z,77398.42
2019-06-10T21:01:13.761Z,77586.41
2019-06-10T21:03:44.510Z,77670.91
2019-06-10T21:06:15.807Z,77775.97
2019-06-10T21:08:48.112Z,77784.53
2019-06-10T21:11:17.190Z,77973.05
2019-06-10T21:13:49.318Z,77960.35
2019-06-10T21:16:19.042Z,77949.20
2019-06-10T21:18:54.630Z,78120.66
2019-06-10T21:21:22.635Z,78115.27
2019-06-10T21:23:54.105Z,78157.14
2019-06-10T21:26:24.115Z,78182.49
2019-06-10T21:28:55.046Z,78319.36
2019-06-10T21:31:25.298Z,78407.71
2019-06-10T21:33:55.894Z,78513.59
2019-06-10T21:36:25.931Z,78555.92
2019-06-10T21:38:56.113Z,78821.52
2019-06-10T21:41:26.154Z,78997.97
2019-06-10T21:43:59.475Z,79096.27
2019-06-10T21:46:27.699Z,79198.05
2019-06-10T21:48:57.611Z,79009.38
2019-06-10T21:51:27.471Z,78958.51
2019-06-10T21:53:57.323Z,79239.67
2019-06-10T21:56:27.370Z,79389.34
2019-06-10T21:58:57.218Z,79203.45
2019-06-10T22:01:27.132Z,78972.88
2019-06-10T22:04:00.844Z,79171.00
2019-06-10T22:06:28.604Z,79556.33
2019-06-10T22:08:58.457Z,79742.93
2019-06-10T22:11:28.408Z,80040.28
2019-06-10T22:13:58.269Z,80302.91
2019-06-10T22:16:28.110Z,80006.38
2019-06-10T22:18:58.024Z,79276.91
2019-06-10T22:21:27.866Z,79374.83
2019-06-10T22:23:57.823Z,79570.80
2019-06-10T22:26:27.717Z,79574.06
2019-06-10T22:28:57.779Z,79628.11
2019-06-10T22:31:27.715Z,79577.27
2019-06-10T22:33:57.823Z,79962.48
2019-06-10T22:36:27.715Z,79660.19
2019-06-10T22:38:59.261Z,79945.67
2019-06-10T22:41:29.345Z,80226.80
2019-06-10T22:43:59.835Z,80530.55
2019-06-10T22:46:31.988Z,80417.30
2019-06-10T22:49:03.060Z,80130.66
2019-06-10T22:51:33.174Z,80371.33
2019-06-10T22:54:03.703Z,80426.12
2019-06-10T22:56:36.471Z,80297.55
2019-06-10T22:59:06.292Z,80405.17
2019-06-10T23:01:38.323Z,80706.11
2019-06-10T23:04:07.676Z,80950.73
2019-06-10T23:06:38.022Z,81410.87
2019-06-10T23:09:08.023Z,81936.45
2019-06-10T23:11:37.846Z,82057.30
2019-06-10T23:14:07.669Z,82247.38
2019-06-10T23:16:37.539Z,82362.53
2019-06-10T23:19:07.366Z,82497.47
2019-06-10T23:21:37.274Z,82548.35
2019-06-10T23:24:07.114Z,82675.14
2019-06-10T23:26:36.991Z,82364.42
2019-06-10T23:29:06.851Z,82479.23
2019-06-10T23:31:51.513Z,82567.80
2019-06-10T23:34:08.306Z,82514.51
2019-06-10T23:36:38.145Z,82563.42
2019-06-10T23:39:07.999Z,82611.94
2019-06-10T23:41:37.845Z,82726.29
2019-06-10T23:44:07.676Z,82705.97
2019-06-10T23:46:37.551Z,82704.88
2019-06-10T23:49:07.404Z,82842.22
2019-06-10T23:51:37.279Z,82884.08
2019-06-10T23:54:07.117Z,82991.65
2019-06-10T23:56:37.233Z,83031.55
2019-06-10T23:59:07.498Z,83174.19
